Headsville, Texas
Current Conditions -  °F | °C
As of 4:35 AM on Saturday 22 Nov 2014 (Local Time) from KLXY Reporting Station
Overcast Overcast  
Wind Chill: 61°   Ceiling: 600
Heat Index: 61°   Visibility: 10mi
Dew Point: 59°   Wind: 13mph
Humidity: 94%   Direction: 140°SE
Pressure: 30.07"   Gusts: 21mph
Location:  31.3327°N, 96.6013°W
Report Text: KLXY 221035Z AUTO 14011G18KT 10SM OVC006 16/15 A3007 RMK AO2 LTG DSNT N AND NW T01600150
Loading
Personal Weather Stations






























Interactive Weather Map New forecast layout! Learn more

10-Day Weather Forecast

Advertisements
Track Severe Weather on mobile